createdAt,value
2023-04-12T00:02:04.839Z,95912.00
2023-04-12T00:06:10.378Z,95910.00
2023-04-12T00:10:14.734Z,95898.00
2023-04-12T00:14:17.531Z,95899.00
2023-04-12T00:18:25.041Z,95890.00
2023-04-12T00:22:30.562Z,95881.00
2023-04-12T00:26:40.349Z,95870.00
2023-04-12T00:30:43.192Z,95863.00
2023-04-12T00:34:48.595Z,95854.00
2023-04-12T00:38:51.586Z,95854.00
2023-04-12T00:42:56.814Z,95834.00
2023-04-12T00:47:00.359Z,95835.00
2023-04-12T00:51:07.859Z,95826.00
2023-04-12T00:55:11.069Z,95819.00
2023-04-12T00:59:15.373Z,95823.00
2023-04-12T01:03:23.170Z,95811.00
2023-04-12T01:07:37.249Z,95811.00
2023-04-12T01:11:47.774Z,95803.00
2023-04-12T01:15:56.440Z,95807.00
2023-04-12T01:20:14.493Z,95808.00
2023-04-12T01:24:34.139Z,95812.00
2023-04-12T01:28:42.047Z,95791.00
2023-04-12T01:32:48.229Z,95794.00
2023-04-12T01:36:52.697Z,95791.00
2023-04-12T01:40:59.080Z,95792.00
2023-04-12T01:45:04.916Z,95780.00
2023-04-12T01:49:07.804Z,95775.00
2023-04-12T01:53:15.313Z,95772.00
2023-04-12T01:57:19.997Z,95769.00
2023-04-12T02:01:24.980Z,95762.00
2023-04-12T02:05:31.288Z,95761.00
2023-04-12T02:09:38.264Z,95753.00
2023-04-12T02:13:49.776Z,95749.00
2023-04-12T02:17:54.570Z,95752.00
2023-04-12T02:21:57.848Z,95747.00
2023-04-12T02:26:09.560Z,95746.00
2023-04-12T02:30:15.215Z,95731.00
2023-04-12T02:34:24.848Z,95731.00
2023-04-12T02:38:30.254Z,95722.00
2023-04-12T02:42:33.376Z,95711.00
2023-04-12T02:46:38.590Z,95710.00
2023-04-12T02:50:44.631Z,95709.00
2023-04-12T02:54:49.004Z,95701.00
2023-04-12T02:58:51.779Z,95697.00
2023-04-12T03:03:01.878Z,95695.00
2023-04-12T03:07:06.721Z,95694.00
2023-04-12T03:11:12.736Z,95701.00
2023-04-12T03:15:15.555Z,95699.00
2023-04-12T03:19:18.336Z,95692.00
2023-04-12T03:23:27.567Z,95700.00
2023-04-12T03:27:30.366Z,95703.00
2023-04-12T03:31:33.385Z,95709.00
2023-04-12T03:35:36.671Z,95715.00
2023-04-12T03:39:41.079Z,95722.00
2023-04-12T03:43:48.169Z,95706.00
2023-04-12T03:47:53.524Z,95698.00
2023-04-12T03:51:58.583Z,95683.00
2023-04-12T03:56:05.476Z,95675.00
2023-04-12T04:00:10.015Z,95667.00
2023-04-12T04:04:14.352Z,95659.00
2023-04-12T04:08:22.643Z,95659.00
2023-04-12T04:12:28.706Z,95660.00
2023-04-12T04:16:33.351Z,95662.00
2023-04-12T04:20:36.201Z,95666.00
2023-04-12T04:24:39.226Z,95659.00
2023-04-12T04:28:47.121Z,95661.00
2023-04-12T04:32:51.201Z,95648.00
2023-04-12T04:36:54.014Z,95653.00
2023-04-12T04:40:56.905Z,95647.00
2023-04-12T04:45:12.633Z,95645.00
2023-04-12T04:49:15.540Z,95644.00
2023-04-12T04:53:22.345Z,95645.00
2023-04-12T04:57:26.704Z,95637.00
2023-04-12T05:01:36.109Z,95638.00
2023-04-12T05:05:39.844Z,95636.00
2023-04-12T05:09:42.858Z,95630.00
2023-04-12T05:13:45.679Z,95629.00
2023-04-12T05:17:54.121Z,95626.00
2023-04-12T05:21:57.009Z,95616.00
2023-04-12T05:26:05.670Z,95629.00
2023-04-12T05:30:12.110Z,95627.00
2023-04-12T05:34:18.697Z,95633.00
2023-04-12T05:38:21.581Z,95607.00
2023-04-12T05:42:28.449Z,95603.00
2023-04-12T05:46:31.274Z,95593.00
2023-04-12T05:50:35.472Z,95594.00
2023-04-12T05:54:38.281Z,95588.00
2023-04-12T05:58:41.055Z,95581.00
2023-04-12T06:02:45.019Z,95580.00
2023-04-12T06:06:51.716Z,95575.00
2023-04-12T06:10:54.587Z,95581.00
2023-04-12T06:14:57.663Z,95589.00
2023-04-12T06:19:00.890Z,95574.00
2023-04-12T06:23:05.226Z,95573.00
2023-04-12T06:27:08.247Z,95574.00
2023-04-12T06:31:11.337Z,95570.00
2023-04-12T06:35:16.929Z,95556.00
2023-04-12T06:39:21.070Z,95556.00
2023-04-12T06:43:24.981Z,95553.00
2023-04-12T06:47:27.773Z,95554.00
2023-04-12T06:51:31.953Z,95536.00
2023-04-12T06:55:39.557Z,95538.00
2023-04-12T06:59:42.341Z,95539.00
2023-04-12T07:03:45.384Z,95535.00
2023-04-12T07:07:51.060Z,95527.00
2023-04-12T07:11:55.356Z,95531.00
2023-04-12T07:16:03.119Z,95530.00
2023-04-12T07:20:08.740Z,95510.00
2023-04-12T07:24:16.150Z,95513.00
2023-04-12T07:28:23.649Z,95498.00
2023-04-12T07:32:27.280Z,95482.00
2023-04-12T07:36:34.205Z,95478.00
2023-04-12T07:40:39.760Z,95471.00
2023-04-12T07:44:43.939Z,95476.00
2023-04-12T07:48:49.379Z,95468.00
2023-04-12T07:52:56.858Z,95454.00
2023-04-12T07:57:01.027Z,95453.00
2023-04-12T08:01:05.846Z,95461.00
2023-04-12T08:05:09.731Z,95463.00
2023-04-12T08:09:13.563Z,95454.00
2023-04-12T08:13:17.548Z,95448.00
2023-04-12T08:17:21.991Z,95448.00
2023-04-12T08:21:24.937Z,95445.00
2023-04-12T08:25:30.987Z,95450.00
2023-04-12T08:29:34.901Z,95438.00
2023-04-12T08:33:39.059Z,95434.00
2023-04-12T08:37:41.978Z,95430.00
2023-04-12T08:41:48.735Z,95425.00
2023-04-12T08:45:54.007Z,95425.00
2023-04-12T08:49:58.675Z,95414.00
2023-04-12T08:54:01.503Z,95411.00
2023-04-12T08:58:10.124Z,95407.00
2023-04-12T09:02:15.591Z,95399.00
2023-04-12T09:06:24.811Z,95404.00
2023-04-12T09:10:37.444Z,95395.00
2023-04-12T09:14:43.898Z,95391.00
2023-04-12T09:18:51.255Z,95382.00
2023-04-12T09:22:57.014Z,95373.00
2023-04-12T09:27:07.504Z,95370.00
2023-04-12T09:31:17.873Z,95366.00
2023-04-12T09:35:34.662Z,95362.00
2023-04-12T09:39:45.136Z,95345.00
2023-04-12T09:43:47.924Z,95336.00
2023-04-12T09:47:51.207Z,95343.00
2023-04-12T09:51:59.385Z,95327.00
2023-04-12T09:56:04.682Z,95327.00
2023-04-12T10:00:12.709Z,95327.00
2023-04-12T10:04:18.464Z,95313.00
2023-04-12T10:08:25.216Z,95307.00
2023-04-12T10:12:29.862Z,95297.00
2023-04-12T10:16:41.851Z,95294.00
2023-04-12T10:20:45.045Z,95291.00
2023-04-12T10:24:48.230Z,95281.00
2023-04-12T10:29:26.093Z,95273.00
2023-04-12T10:33:32.031Z,95261.00
2023-04-12T10:38:01.051Z,95255.00
2023-04-12T10:42:22.952Z,95243.00
2023-04-12T10:46:51.734Z,95238.00
2023-04-12T10:51:14.157Z,95231.00
2023-04-12T10:55:30.008Z,95234.00
2023-04-12T10:59:55.964Z,95240.00
2023-04-12T11:04:20.313Z,95231.00
2023-04-12T11:08:26.919Z,95230.00
2023-04-12T11:12:31.814Z,95221.00
2023-04-12T11:16:34.809Z,95213.00
2023-04-12T11:20:40.660Z,95214.00
2023-04-12T11:24:45.523Z,95208.00
2023-04-12T11:28:52.996Z,95194.00
2023-04-12T11:32:55.906Z,95186.00
2023-04-12T11:37:00.980Z,95177.00
2023-04-12T11:41:03.905Z,95187.00
2023-04-12T11:45:15.716Z,95184.00
2023-04-12T11:49:22.033Z,95165.00
2023-04-12T11:53:33.008Z,95167.00
2023-04-12T11:57:36.681Z,95171.00
2023-04-12T12:01:39.998Z,95168.00
2023-04-12T12:05:47.395Z,95164.00
2023-04-12T12:09:52.187Z,95164.00
2023-04-12T12:14:00.754Z,95155.00
2023-04-12T12:18:03.900Z,95158.00
2023-04-12T12:22:12.693Z,95152.00
2023-04-12T12:26:22.764Z,95159.00
2023-04-12T12:30:25.709Z,95141.00
2023-04-12T12:34:36.891Z,95134.00
2023-04-12T12:38:45.568Z,95136.00
2023-04-12T12:42:54.798Z,95135.00
2023-04-12T12:47:10.172Z,95125.00
2023-04-12T12:51:18.190Z,95124.00
2023-04-12T12:55:24.348Z,95116.00
2023-04-12T12:59:29.832Z,95116.00
2023-04-12T13:03:33.260Z,95104.00
2023-04-12T13:07:39.723Z,95089.00
2023-04-12T13:11:46.086Z,95082.00
2023-04-12T13:15:58.721Z,95071.00
2023-04-12T13:20:03.097Z,95069.00
2023-04-12T13:24:07.979Z,95060.00
2023-04-12T13:28:12.385Z,95056.00
2023-04-12T13:32:18.795Z,95047.00
2023-04-12T13:36:24.194Z,95042.00
2023-04-12T13:40:27.100Z,95033.00
2023-04-12T13:44:30.443Z,95036.00
2023-04-12T13:48:36.188Z,95022.00
2023-04-12T13:52:43.524Z,95024.00
2023-04-12T13:56:46.413Z,95021.00
2023-04-12T14:00:56.879Z,95018.00
2023-04-12T14:05:01.241Z,95004.00
2023-04-12T14:09:05.861Z,94999.00
2023-04-12T14:13:13.230Z,95004.00
2023-04-12T14:17:16.309Z,95007.00
2023-04-12T14:21:22.759Z,95003.00
2023-04-12T14:25:25.617Z,94996.00
2023-04-12T14:29:28.533Z,94987.00
2023-04-12T14:33:34.083Z,94991.00
2023-04-12T14:37:43.198Z,94985.00
2023-04-12T14:41:51.441Z,94986.00
2023-04-12T14:45:57.080Z,94979.00
2023-04-12T14:50:02.108Z,94972.00
2023-04-12T14:54:08.206Z,94968.00
2023-04-12T14:58:16.509Z,94965.00
2023-04-12T15:02:21.633Z,94961.00
2023-04-12T15:06:28.738Z,94978.00
2023-04-12T15:10:41.182Z,94960.00
2023-04-12T15:14:46.663Z,94962.00
2023-04-12T15:18:53.858Z,94965.00
2023-04-12T15:22:56.822Z,94957.00
2023-04-12T15:27:03.693Z,94961.00
2023-04-12T15:31:12.418Z,94960.00
2023-04-12T15:35:26.953Z,94962.00
2023-04-12T15:39:32.180Z,94959.00
2023-04-12T15:43:42.054Z,94946.00
2023-04-12T15:47:46.995Z,94941.00
2023-04-12T15:51:50.043Z,94946.00
2023-04-12T15:55:55.455Z,94936.00
2023-04-12T15:59:59.908Z,94936.00
2023-04-12T16:04:07.083Z,94930.00
2023-04-12T16:08:10.928Z,94931.00
2023-04-12T16:12:13.752Z,94939.00
2023-04-12T16:16:39.696Z,94923.00
2023-04-12T16:20:42.829Z,94920.00
2023-04-12T16:24:45.609Z,94917.00
2023-04-12T16:28:48.517Z,94906.00
2023-04-12T16:32:56.058Z,94908.00
2023-04-12T16:36:58.859Z,94904.00
2023-04-12T16:41:02.422Z,94898.00
2023-04-12T16:45:06.097Z,94881.00
2023-04-12T16:49:11.911Z,94857.00
2023-04-12T16:53:16.379Z,94865.00
2023-04-12T16:57:19.202Z,94856.00
2023-04-12T17:01:22.442Z,94859.00
2023-04-12T17:05:27.164Z,94857.00
2023-04-12T17:09:32.452Z,94860.00
2023-04-12T17:13:36.694Z,94871.00
2023-04-12T17:17:39.594Z,94868.00
2023-04-12T17:21:46.911Z,94865.00
2023-04-12T17:25:49.972Z,94856.00
2023-04-12T17:29:52.927Z,94847.00
2023-04-12T17:33:56.216Z,94842.00
2023-04-12T17:38:05.070Z,94833.00
2023-04-12T17:42:10.962Z,94830.00
2023-04-12T17:46:13.813Z,94831.00
2023-04-12T17:50:16.822Z,94831.00
2023-04-12T17:54:21.452Z,94827.00
2023-04-12T17:58:24.530Z,94819.00
2023-04-12T18:02:30.954Z,94821.00
2023-04-12T18:06:36.224Z,94821.00
2023-04-12T18:10:40.413Z,94823.00
2023-04-12T18:14:49.006Z,94815.00
2023-04-12T18:18:54.868Z,94836.00
2023-04-12T18:22:58.741Z,94824.00
2023-04-12T18:27:07.051Z,94837.00
2023-04-12T18:31:09.909Z,94858.00
2023-04-12T18:35:12.745Z,94913.00
2023-04-12T18:39:18.030Z,94906.00
2023-04-12T18:43:25.870Z,94917.00
2023-04-12T18:47:28.810Z,94915.00
2023-04-12T18:51:34.153Z,94916.00
2023-04-12T18:55:41.620Z,94912.00
2023-04-12T18:59:47.880Z,94927.00
2023-04-12T19:03:53.569Z,94935.00
2023-04-12T19:07:56.565Z,94936.00
2023-04-12T19:11:59.475Z,94933.00
2023-04-12T19:16:19.484Z,94940.00
2023-04-12T19:20:24.055Z,94945.00
2023-04-12T19:24:27.133Z,94936.00
2023-04-12T19:28:29.984Z,94931.00
2023-04-12T19:32:35.763Z,94945.00
2023-04-12T19:36:40.256Z,94953.00
2023-04-12T19:40:45.320Z,94965.00
2023-04-12T19:44:48.141Z,94973.00
2023-04-12T19:48:54.825Z,94969.00
2023-04-12T19:53:02.945Z,94982.00
2023-04-12T19:57:13.288Z,94990.00
2023-04-12T20:01:16.271Z,94995.00
2023-04-12T20:05:22.581Z,95001.00
2023-04-12T20:09:26.204Z,94994.00
2023-04-12T20:13:30.842Z,94986.00
2023-04-12T20:17:34.458Z,94981.00
2023-04-12T20:21:43.111Z,94982.00
2023-04-12T20:25:51.934Z,94963.00
2023-04-12T20:29:54.855Z,94964.00
2023-04-12T20:33:58.857Z,94971.00
2023-04-12T20:38:05.760Z,94953.00
2023-04-12T20:42:12.452Z,94953.00
2023-04-12T20:46:28.234Z,94949.00
2023-04-12T20:50:38.747Z,94945.00
2023-04-12T20:54:43.023Z,94952.00
2023-04-12T20:58:48.403Z,94966.00
2023-04-12T23:37:48.234Z,95112.00
2023-04-12T23:41:54.093Z,95116.00
2023-04-12T23:45:57.835Z,95115.00
2023-04-12T23:50:00.678Z,95119.00
2023-04-12T23:54:04.929Z,95120.00
2023-04-12T23:58:08.214Z,95131.00
